Portada
METAR-TAF:

METAR-TAF

Aeroports :

Ōita, Japó

latitud: 33-29N, longitud: 131-44E, altitud: 5 m

Observació

L'informe es va fer fa 35 minuts, a les 09:00 UTC
Vent 8 kt del Nord
Temperatura 9°C
Humitat 57%
Pressió 1026 hPa
Visibilitat 10 km o més
sense núvols per sota de 1500 mi sense presència de cumulonimbus.

METAR: RJFO 270900Z 01008KT CAVOK 09/01 Q1026

Hora: 18:35 (09:35 UTC)

Pronòstic

L'informe es va fer fa 4 hores i 29 minuts, a les 05:06 UTC
Pronòstic vàlid del 27 a les 06 UTC al 28 a les 12 UTC
Vent 17 kt del Nord/Nord-Est
Visibilitat 10 km o més
Escasses núvols a una alçada de 3000 ft
Evolucionant progressivament
l' 27 a les 13 UTC al 27 a les 15 UTC
Vent 16 kt del Est
Evolucionant progressivament
l' 27 a les 18 UTC al 27 a les 21 UTC
Vent 18 kt del Est
Evolucionant progressivament
l' 28 a les 00 UTC al 28 a les 03 UTC
Vent 17 kt del Est/Sud-Est

TAF: RJFO 270506Z 2706/2812 03017KT 9999 FEW030 BECMG 2713/2715 10016KT BECMG 2718/2721 08018KT BECMG 2800/2803 11017KT

Observacions i pronòstics meteorològics de més de 4000 aeroports (METAR i TAF).

Les estacions disponibles són els punts grocs i vermells al mapa.

Posi el ratolí al punt desitjat per veure el nom de l'estació.

Feu clic per veure les observacions i els pronòstics meteorològics.

Per canviar el mapa: feu clic els botons verds amb una creu de color negre per apropar; al botó verd amb un guió per allunyar la imatge; o en les fletxes verdes per a mapes adjacents.


METAR-TAF: